Time;durP1;ratioP1;P1;durP2;ratioP2;P2;SDS_P1;SDS_P2;PMS_P1;PMS_P2;Temp;Humidity;BMP_temperature;BMP_pressure;BME280_temperature;BME280_humidity;BME280_pressure;Samples;Min_cycle;Max_cycle;Signal;HPM_P1;HPM_P2
2022/01/18 00:01:28;;;;;;;43.33;6.28;;;5.10;99.90;;;;;;5050584;28;20063;-69
2022/01/18 00:03:54;;;;;;;32.67;7.13;;;5.10;99.90;;;;;;5050339;28;20060;-69
2022/01/18 00:06:19;;;;;;;34.67;7.35;;;5.10;99.90;;;;;;5083225;28;20048;-69
2022/01/18 00:08:45;;;;;;;38.63;8.05;;;5.10;99.90;;;;;;5050059;28;20053;-69
2022/01/18 00:11:11;;;;;;;45.42;8.10;;;5.10;99.90;;;;;;5051136;28;20048;-69
2022/01/18 00:13:41;;;;;;;32.50;5.72;;;5.10;99.90;;;;;;5049531;28;20047;-69
2022/01/18 00:16:22;;;;;;;30.23;7.32;;;5.00;99.90;;;;;;5049651;28;20040;-69
2022/01/18 00:18:49;;;;;;;35.95;8.25;;;5.00;99.90;;;;;;5049969;28;20045;-69
2022/01/18 00:22:08;;;;;;;35.97;7.18;;;5.00;99.90;;;;;;5049029;28;20060;-69
2022/01/18 00:24:06;;;;;;;27.83;6.53;;;5.00;99.90;;;;;;5043918;28;20049;-69
2022/01/18 00:26:33;;;;;;;42.70;6.15;;;4.90;99.90;;;;;;5049815;28;20045;-69
2022/01/18 00:29:06;;;;;;;30.80;6.38;;;4.90;99.90;;;;;;5049099;28;20056;-69
2022/01/18 00:34:41;;;;;;;27.40;7.40;;;4.90;99.90;;;;;;5049684;28;20045;-69
2022/01/18 00:39:12;;;;;;;30.13;5.70;;;4.90;99.90;;;;;;5049498;28;20056;-69
2022/01/18 00:41:39;;;;;;;31.58;7.47;;;4.90;99.90;;;;;;5048840;28;20033;-69
2022/01/18 00:44:05;;;;;;;36.13;6.65;;;4.90;99.90;;;;;;5049292;28;20052;-69
2022/01/18 00:46:31;;;;;;;33.75;7.38;;;4.90;99.90;;;;;;5050872;28;20387;-69
2022/01/18 00:49:01;;;;;;;38.90;6.40;;;4.90;99.90;;;;;;5049136;28;20048;-69
2022/01/18 00:51:37;;;;;;;50.08;7.03;;;4.90;99.90;;;;;;5049618;28;20136;-69
2022/01/18 00:54:04;;;;;;;36.17;6.70;;;4.90;99.90;;;;;;5050489;28;20052;-69
2022/01/18 00:56:32;;;;;;;21.63;5.40;;;4.90;99.90;;;;;;5047924;28;20122;-69
2022/01/18 00:59:01;;;;;;;48.75;8.00;;;4.90;99.90;;;;;;5049704;28;20132;-69
2022/01/18 01:01:29;;;;;;;40.83;7.70;;;4.80;99.90;;;;;;5049478;28;20103;-69
2022/01/18 01:04:00;;;;;;;23.88;4.65;;;4.80;99.90;;;;;;5049249;28;20072;-70
2022/01/18 01:06:27;;;;;;;42.70;6.63;;;4.80;99.90;;;;;;5053564;28;20441;-69
2022/01/18 01:08:53;;;;;;;31.25;5.82;;;4.80;99.90;;;;;;5053564;28;20064;-69
2022/01/18 01:11:20;;;;;;;29.52;6.45;;;4.80;99.90;;;;;;5053691;28;20041;-69
2022/01/18 01:13:48;;;;;;;29.95;4.20;;;4.80;99.90;;;;;;5053378;28;20110;-69
2022/01/18 01:43:31;;;;;;;38.38;6.65;;;4.90;99.90;;;;;;5078261;28;20053;-69
2022/01/18 01:45:58;;;;;;;32.33;4.35;;;4.90;99.90;;;;;;5051425;28;20076;-69
2022/01/18 01:48:25;;;;;;;31.88;5.80;;;4.90;99.90;;;;;;5050554;28;20066;-69
2022/01/18 01:50:55;;;;;;;37.10;6.63;;;4.90;99.90;;;;;;5052824;28;20053;-69
2022/01/18 01:53:23;;;;;;;25.85;6.22;;;5.00;99.90;;;;;;5051937;28;20041;-69
2022/01/18 01:55:50;;;;;;;40.85;7.13;;;5.00;99.90;;;;;;5052633;28;20080;-69
2022/01/18 01:58:19;;;;;;;26.92;5.00;;;5.10;99.90;;;;;;5052329;28;20049;-69
2022/01/18 02:00:49;;;;;;;21.45;4.75;;;5.20;99.90;;;;;;5053261;28;20048;-69
2022/01/18 02:03:15;;;;;;;29.75;6.43;;;5.20;99.90;;;;;;5052209;28;20051;-69
2022/01/18 02:05:41;;;;;;;33.83;4.47;;;5.20;99.90;;;;;;5051995;28;20063;-69
2022/01/18 02:08:07;;;;;;;26.25;4.65;;;5.20;99.90;;;;;;5052493;28;20707;-69
2022/01/18 02:10:40;;;;;;;18.65;4.18;;;5.30;99.90;;;;;;5052697;28;20497;-69
2022/01/18 02:13:07;;;;;;;20.75;2.97;;;5.30;99.90;;;;;;5051298;28;20480;-69
2022/01/18 02:15:39;;;;;;;24.38;3.47;;;5.30;99.90;;;;;;5051710;28;20427;-69
2022/01/18 02:23:36;;;;;;;21.80;4.70;;;5.30;99.90;;;;;;5053675;28;20069;-69
2022/01/18 02:26:02;;;;;;;17.38;3.60;;;5.40;99.90;;;;;;5052057;28;20769;-69
2022/01/18 02:28:28;;;;;;;28.35;4.40;;;5.30;99.90;;;;;;5051328;28;20059;-69
2022/01/18 02:30:54;;;;;;;22.38;4.05;;;5.30;99.90;;;;;;5053372;28;20454;-69
2022/01/18 02:33:20;;;;;;;22.30;3.85;;;5.30;99.90;;;;;;5051471;28;20502;-69
2022/01/18 02:35:47;;;;;;;35.75;4.93;;;5.30;99.90;;;;;;5051694;28;20049;-69
2022/01/18 02:38:12;;;;;;;19.17;3.47;;;5.30;99.90;;;;;;5051817;28;20549;-69
2022/01/18 02:40:38;;;;;;;24.52;4.30;;;5.30;99.90;;;;;;5051677;28;20041;-69
2022/01/18 02:45:55;;;;;;;13.80;3.35;;;5.30;99.90;;;;;;5053226;28;20049;-69
2022/01/18 02:48:22;;;;;;;12.70;3.33;;;5.30;99.90;;;;;;5051174;28;20395;-69
2022/01/18 02:50:48;;;;;;;28.25;5.78;;;5.30;99.90;;;;;;5051478;28;20052;-69
2022/01/18 02:53:16;;;;;;;135.27;17.67;;;5.40;99.90;;;;;;5052412;28;20132;-69
2022/01/18 02:55:50;;;;;;;25.92;4.85;;;6.50;99.90;;;;;;5081972;28;20053;-68
2022/01/18 03:03:51;;;;;;;23.85;3.60;;;5.50;99.90;;;;;;5051066;28;20053;-69
2022/01/18 03:06:16;;;;;;;19.58;4.20;;;5.50;99.90;;;;;;5051101;28;20479;-69
2022/01/18 03:08:42;;;;;;;26.33;3.50;;;5.60;99.90;;;;;;5051535;28;20088;-69
2022/01/18 03:11:07;;;;;;;20.00;4.40;;;5.60;99.90;;;;;;5050426;28;20053;-69
2022/01/18 03:13:33;;;;;;;20.10;3.70;;;5.60;99.90;;;;;;5052543;28;20056;-68
2022/01/18 03:15:59;;;;;;;17.60;3.28;;;5.60;99.90;;;;;;5051839;28;20044;-69
2022/01/18 03:18:24;;;;;;;20.83;3.10;;;5.60;99.90;;;;;;5051018;28;20075;-68
2022/01/18 03:20:50;;;;;;;24.55;3.83;;;5.60;99.90;;;;;;5050918;28;20061;-68
2022/01/18 03:23:19;;;;;;;21.10;3.97;;;5.70;99.90;;;;;;5051500;28;20045;-69
2022/01/18 03:25:55;;;;;;;26.45;4.25;;;5.70;99.90;;;;;;5051198;28;20052;-68
2022/01/18 03:28:22;;;;;;;14.63;2.92;;;5.70;99.90;;;;;;5049837;28;20052;-69
2022/01/18 03:30:53;;;;;;;24.77;3.38;;;5.70;99.90;;;;;;5051322;28;20127;-69
2022/01/18 03:33:21;;;;;;;17.98;3.42;;;5.80;99.90;;;;;;5050820;28;20051;-69
2022/01/18 03:35:48;;;;;;;16.65;2.95;;;5.70;99.90;;;;;;5051129;28;20082;-69
2022/01/18 03:38:14;;;;;;;13.57;2.80;;;5.70;99.90;;;;;;5046622;28;20052;-69
2022/01/18 03:40:40;;;;;;;9.20;2.17;;;5.70;99.90;;;;;;5050972;28;20041;-69
2022/01/18 03:43:08;;;;;;;16.33;2.72;;;5.70;99.90;;;;;;5049561;28;20404;-69
2022/01/18 03:45:41;;;;;;;16.88;2.75;;;5.70;99.90;;;;;;5049800;28;20053;-69
2022/01/18 03:48:15;;;;;;;13.57;2.33;;;5.70;99.90;;;;;;5050480;28;20076;-69
2022/01/18 03:50:41;;;;;;;18.35;3.33;;;5.70;99.90;;;;;;5050484;28;20045;-69
2022/01/18 03:53:09;;;;;;;10.55;1.88;;;5.70;99.90;;;;;;5049507;28;20084;-69
2022/01/18 03:55:34;;;;;;;10.60;2.53;;;5.70;99.90;;;;;;5051768;28;20044;-69
2022/01/18 03:58:00;;;;;;;7.90;1.80;;;5.80;99.90;;;;;;5050090;28;20091;-69
2022/01/18 04:00:29;;;;;;;8.18;2.00;;;5.80;99.90;;;;;;5050254;28;20094;-69
2022/01/18 04:02:55;;;;;;;12.82;2.38;;;5.80;99.90;;;;;;5050092;28;20115;-69
2022/01/18 04:05:21;;;;;;;12.32;2.13;;;5.90;99.90;;;;;;5049328;28;20055;-69
2022/01/18 04:07:47;;;;;;;12.77;2.47;;;5.90;99.90;;;;;;5050248;28;20127;-69
2022/01/18 04:10:13;;;;;;;10.82;2.13;;;5.90;99.90;;;;;;5050052;28;20541;-69
2022/01/18 04:12:42;;;;;;;12.50;1.73;;;6.00;99.90;;;;;;5049378;28;20045;-69
2022/01/18 04:15:10;;;;;;;12.07;2.58;;;6.00;99.90;;;;;;5049717;28;20055;-69
2022/01/18 04:26:05;;;;;;;9.23;2.38;;;6.10;99.90;;;;;;5050192;28;20099;-69
2022/01/18 04:28:39;;;;;;;11.15;2.03;;;6.10;99.90;;;;;;5049216;28;20111;-69
2022/01/18 04:31:06;;;;;;;14.10;2.40;;;6.20;99.90;;;;;;5049535;28;20049;-69
2022/01/18 04:33:32;;;;;;;92.10;9.57;;;6.10;99.90;;;;;;5048938;28;20415;-69
2022/01/18 04:35:59;;;;;;;12.88;2.08;;;6.10;99.90;;;;;;5049795;28;20073;-69
2022/01/18 04:38:25;;;;;;;13.27;2.05;;;6.10;99.90;;;;;;5050625;28;20077;-69
2022/01/18 04:40:50;;;;;;;16.55;2.72;;;6.10;99.90;;;;;;5048914;28;20158;-69
2022/01/18 04:43:42;;;;;;;20.35;2.72;;;6.10;99.90;;;;;;5049286;28;20045;-69
2022/01/18 04:48:53;;;;;;;7.18;1.88;;;6.10;99.90;;;;;;5048911;28;20135;-69
2022/01/18 04:51:20;;;;;;;10.57;2.35;;;6.10;99.90;;;;;;5049320;28;20049;-69
2022/01/18 04:53:52;;;;;;;8.73;1.50;;;6.20;99.90;;;;;;5049379;28;20048;-69
2022/01/18 04:56:27;;;;;;;8.15;1.60;;;6.20;99.90;;;;;;5048813;28;20064;-69
2022/01/18 04:58:53;;;;;;;7.43;1.42;;;6.20;99.90;;;;;;5050955;28;20067;-69
2022/01/18 05:01:19;;;;;;;6.22;1.55;;;6.20;99.90;;;;;;5049028;28;20403;-69
2022/01/18 05:03:44;;;;;;;9.52;1.90;;;6.20;99.90;;;;;;5049015;28;20450;-69
2022/01/18 05:06:13;;;;;;;9.25;1.60;;;6.20;99.90;;;;;;5049045;28;20047;-69
2022/01/18 05:08:40;;;;;;;10.93;1.60;;;6.20;99.90;;;;;;5048651;28;20400;-69
2022/01/18 05:11:08;;;;;;;8.50;1.77;;;6.20;99.90;;;;;;5050353;28;20490;-69
2022/01/18 05:19:02;;;;;;;4.32;0.93;;;6.10;99.90;;;;;;5049503;28;20056;-69
2022/01/18 05:21:35;;;;;;;7.55;1.95;;;6.20;99.90;;;;;;5049201;28;20057;-69
2022/01/18 05:24:01;;;;;;;10.93;1.95;;;6.10;99.90;;;;;;5047702;28;20041;-69
2022/01/18 05:26:28;;;;;;;13.10;2.10;;;6.10;99.90;;;;;;5049084;28;20131;-69
2022/01/18 05:28:54;;;;;;;3.90;1.42;;;6.10;99.90;;;;;;5050535;28;20037;-69
2022/01/18 05:31:20;;;;;;;8.88;2.15;;;6.10;99.90;;;;;;5048284;28;20523;-68
2022/01/18 05:33:47;;;;;;;14.30;2.30;;;6.10;99.90;;;;;;5048039;28;20377;-69
2022/01/18 05:36:13;;;;;;;8.40;1.65;;;6.10;99.90;;;;;;5050275;28;20045;-69
2022/01/18 05:38:39;;;;;;;8.40;2.33;;;6.10;99.90;;;;;;5049878;28;20045;-69
2022/01/18 05:41:07;;;;;;;16.85;2.25;;;6.10;99.90;;;;;;5050118;28;20132;-69
2022/01/18 05:43:32;;;;;;;9.65;2.00;;;6.00;99.90;;;;;;5047778;28;20053;-69
2022/01/18 05:45:58;;;;;;;9.27;2.40;;;6.00;99.90;;;;;;5047808;28;20033;-69
2022/01/18 05:48:24;;;;;;;10.27;2.00;;;6.00;99.90;;;;;;5048809;28;20041;-69
2022/01/18 05:50:51;;;;;;;12.40;2.55;;;6.00;99.90;;;;;;5050143;28;20091;-69
2022/01/18 05:53:17;;;;;;;10.10;2.60;;;5.90;99.90;;;;;;5052342;28;20053;-69
2022/01/18 05:55:43;;;;;;;12.40;2.65;;;5.90;99.90;;;;;;5052261;28;20055;-69
2022/01/18 05:58:08;;;;;;;41.67;3.08;;;5.90;99.90;;;;;;5052441;28;20472;-69
2022/01/18 06:00:34;;;;;;;11.88;2.53;;;5.90;99.90;;;;;;5053899;28;20049;-69
2022/01/18 06:03:02;;;;;;;10.43;2.10;;;5.90;99.90;;;;;;5052355;28;20487;-69
2022/01/18 06:08:13;;;;;;;6.80;1.90;;;5.80;99.90;;;;;;5051143;28;20056;-69
2022/01/18 06:10:39;;;;;;;15.10;2.45;;;5.80;99.90;;;;;;5050640;28;20471;-69
2022/01/18 06:13:07;;;;;;;12.30;1.92;;;5.90;99.90;;;;;;5051362;28;20063;-69
2022/01/18 06:15:33;;;;;;;10.55;2.65;;;5.90;99.90;;;;;;5051937;28;20090;-69
2022/01/18 06:17:59;;;;;;;10.70;2.10;;;5.80;99.90;;;;;;5051606;28;20084;-69
2022/01/18 06:20:25;;;;;;;12.68;2.22;;;5.80;99.90;;;;;;5031467;28;20077;-70
2022/01/18 06:22:51;;;;;;;17.73;2.50;;;5.80;99.90;;;;;;5065523;28;20511;-69
2022/01/18 06:25:20;;;;;;;8.18;2.70;;;5.90;99.90;;;;;;5033296;28;20080;-69
2022/01/18 06:27:46;;;;;;;10.60;2.55;;;5.80;99.90;;;;;;5065156;28;20485;-69
2022/01/18 06:30:13;;;;;;;8.88;2.10;;;5.90;99.90;;;;;;5031720;28;20123;-69
2022/01/18 06:32:40;;;;;;;8.07;2.08;;;5.80;99.90;;;;;;5032063;28;20481;-69
2022/01/18 06:35:08;;;;;;;11.65;2.97;;;5.80;99.90;;;;;;5074701;28;20053;-69
2022/01/18 06:37:34;;;;;;;7.60;2.00;;;5.80;99.90;;;;;;5051992;28;20045;-69
2022/01/18 06:40:01;;;;;;;10.38;2.75;;;5.80;99.90;;;;;;5051461;28;20514;-69
2022/01/18 06:42:27;;;;;;;8.90;2.63;;;5.80;99.90;;;;;;5052045;28;20165;-69
2022/01/18 06:44:52;;;;;;;9.07;2.03;;;5.80;99.90;;;;;;5051642;28;20487;-69
2022/01/18 06:47:18;;;;;;;7.25;2.88;;;5.70;99.90;;;;;;5050830;28;20056;-69
2022/01/18 06:49:44;;;;;;;11.18;3.95;;;5.70;99.90;;;;;;5051664;28;20120;-69
2022/01/18 06:52:09;;;;;;;6.32;3.60;;;5.70;99.90;;;;;;5052659;28;20053;-69
2022/01/18 06:54:35;;;;;;;10.85;3.63;;;5.60;99.90;;;;;;5051013;28;20049;-69
2022/01/18 06:57:01;;;;;;;6.78;2.35;;;5.60;99.90;;;;;;5051062;28;20051;-69
2022/01/18 06:59:26;;;;;;;9.27;2.60;;;5.60;99.90;;;;;;5051329;28;20067;-69
2022/01/18 07:01:52;;;;;;;9.38;2.65;;;5.60;99.90;;;;;;5049492;28;20060;-69
2022/01/18 07:04:18;;;;;;;11.85;2.85;;;5.60;99.90;;;;;;5051739;28;20094;-69
2022/01/18 07:06:45;;;;;;;9.27;2.55;;;5.60;99.90;;;;;;5050888;28;20094;-69
2022/01/18 07:09:12;;;;;;;6.85;2.55;;;5.80;99.90;;;;;;5050532;28;20511;-69
2022/01/18 07:11:38;;;;;;;15.90;6.47;;;5.50;99.90;;;;;;5051356;28;20052;-69
2022/01/18 07:14:04;;;;;;;20.90;8.15;;;5.50;99.90;;;;;;5052365;28;20056;-69
2022/01/18 07:16:29;;;;;;;16.02;6.13;;;5.50;99.90;;;;;;5050569;28;20041;-69
2022/01/18 07:18:55;;;;;;;16.90;6.53;;;5.50;99.90;;;;;;5051097;28;20049;-69
2022/01/18 07:21:20;;;;;;;13.05;5.18;;;5.50;99.90;;;;;;5050592;28;20057;-68
2022/01/18 07:23:46;;;;;;;10.00;3.40;;;5.50;99.90;;;;;;5049580;28;20060;-69
2022/01/18 07:26:12;;;;;;;4.63;2.83;;;5.50;99.90;;;;;;5050696;28;20057;-69
2022/01/18 07:28:40;;;;;;;12.65;2.85;;;5.40;99.90;;;;;;5050903;28;20048;-69
2022/01/18 07:31:05;;;;;;;11.25;2.60;;;5.40;99.90;;;;;;5049079;28;20124;-69
2022/01/18 07:33:31;;;;;;;8.95;2.60;;;5.40;99.90;;;;;;5050909;28;20048;-73
2022/01/18 07:35:57;;;;;;;15.55;3.58;;;5.30;99.90;;;;;;5050158;28;20044;-70
2022/01/18 07:38:22;;;;;;;10.93;2.75;;;5.30;99.90;;;;;;5048973;28;20507;-70
2022/01/18 07:40:49;;;;;;;11.60;3.33;;;5.20;99.90;;;;;;5050146;28;20132;-70
2022/01/18 07:43:17;;;;;;;13.23;3.25;;;5.10;99.90;;;;;;5034514;28;20045;-70
2022/01/18 07:45:47;;;;;;;9.85;3.05;;;5.10;99.90;;;;;;5048733;28;20124;-70
2022/01/18 07:48:14;;;;;;;5.45;2.60;;;5.10;99.90;;;;;;5082089;28;20052;-70
2022/01/18 07:50:40;;;;;;;11.52;3.92;;;5.00;99.90;;;;;;5051033;28;20465;-70
2022/01/18 07:53:06;;;;;;;8.63;3.20;;;5.00;99.90;;;;;;5050024;28;20045;-71
2022/01/18 07:55:32;;;;;;;13.68;3.35;;;4.90;99.90;;;;;;5050315;28;20049;-70
2022/01/18 07:57:59;;;;;;;7.63;2.60;;;4.90;99.90;;;;;;5051118;28;20076;-70
2022/01/18 08:00:26;;;;;;;18.08;3.05;;;4.80;99.90;;;;;;5048304;28;20075;-70
2022/01/18 08:02:52;;;;;;;6.90;2.65;;;4.80;99.90;;;;;;5043898;28;20159;-70
2022/01/18 08:05:18;;;;;;;17.50;3.58;;;4.80;99.90;;;;;;5040347;28;20132;-70
2022/01/18 08:07:43;;;;;;;12.75;2.83;;;4.80;99.90;;;;;;5050068;28;20045;-70
2022/01/18 08:10:10;;;;;;;7.80;3.08;;;4.80;99.90;;;;;;5049691;28;20049;-71
2022/01/18 08:12:36;;;;;;;8.95;3.33;;;4.80;99.90;;;;;;5049486;28;20041;-70
2022/01/18 08:15:12;;;;;;;13.10;3.17;;;4.80;99.90;;;;;;5049445;28;20051;-70
2022/01/18 08:17:39;;;;;;;8.73;2.95;;;4.80;99.90;;;;;;5044969;28;20049;-70
2022/01/18 08:20:05;;;;;;;16.70;3.53;;;4.80;99.90;;;;;;5047568;28;20467;-71
2022/01/18 08:22:30;;;;;;;9.10;2.80;;;4.90;99.90;;;;;;5049407;28;20417;-71
2022/01/18 08:24:56;;;;;;;11.30;3.30;;;4.90;99.90;;;;;;5049712;28;20044;-71
2022/01/18 08:27:24;;;;;;;18.17;4.20;;;4.90;99.90;;;;;;5048623;28;20071;-71
2022/01/18 08:29:49;;;;;;;14.95;4.88;;;5.00;99.90;;;;;;5049931;28;20049;-71
2022/01/18 08:32:16;;;;;;;9.57;2.80;;;5.00;99.90;;;;;;5049420;28;20072;-71
2022/01/18 08:34:42;;;;;;;14.57;3.05;;;5.10;99.90;;;;;;5048288;28;20076;-71
2022/01/18 08:37:07;;;;;;;11.20;3.78;;;5.10;99.90;;;;;;5035643;28;20154;-71
2022/01/18 08:39:33;;;;;;;13.95;3.67;;;5.10;99.90;;;;;;5048321;28;20045;-70
2022/01/18 08:41:59;;;;;;;14.15;2.72;;;5.20;99.90;;;;;;5045625;28;20095;-71
2022/01/18 08:44:24;;;;;;;15.32;4.05;;;5.20;99.90;;;;;;5047965;28;20057;-71
2022/01/18 08:46:50;;;;;;;14.25;3.60;;;5.30;99.90;;;;;;5039525;28;20437;-71
2022/01/18 08:49:16;;;;;;;16.50;3.95;;;5.30;99.90;;;;;;5030288;28;20133;-79
2022/01/18 08:51:41;;;;;;;11.60;3.97;;;5.30;99.90;;;;;;5050350;28;20447;-77
2022/01/18 08:54:07;;;;;;;13.75;4.93;;;5.40;99.90;;;;;;5048238;28;20057;-69
2022/01/18 08:56:32;;;;;;;20.08;4.30;;;5.40;99.90;;;;;;5049464;28;20074;-75
2022/01/18 08:58:58;;;;;;;22.23;5.25;;;5.50;99.90;;;;;;5049492;28;20083;-77
2022/01/18 09:01:24;;;;;;;15.52;5.20;;;5.50;99.90;;;;;;5048491;28;20068;-73
2022/01/18 09:03:52;;;;;;;15.65;5.10;;;5.60;99.90;;;;;;5049549;28;20075;-73
2022/01/18 09:06:18;;;;;;;16.17;4.95;;;5.50;99.90;;;;;;5047678;28;20120;-71
2022/01/18 09:08:46;;;;;;;22.25;6.15;;;5.60;99.90;;;;;;5048152;28;20441;-72
2022/01/18 09:11:12;;;;;;;18.55;5.65;;;5.60;99.90;;;;;;5044780;28;20049;-74
2022/01/18 09:13:38;;;;;;;15.73;6.47;;;5.70;99.90;;;;;;5046998;28;20136;-74
2022/01/18 09:16:06;;;;;;;19.02;5.70;;;5.70;99.90;;;;;;5047932;28;20048;-74
2022/01/18 09:18:32;;;;;;;18.80;5.70;;;5.70;99.90;;;;;;5048294;28;20041;-74
2022/01/18 09:20:59;;;;;;;26.02;5.95;;;5.70;99.90;;;;;;5048658;28;20060;-73
2022/01/18 09:23:25;;;;;;;18.38;4.90;;;5.70;99.90;;;;;;5047246;28;20045;-74
2022/01/18 09:25:50;;;;;;;14.35;5.82;;;5.80;99.90;;;;;;5050474;28;20518;-75
2022/01/18 09:28:16;;;;;;;14.77;5.43;;;5.80;99.90;;;;;;5051787;28;20040;-73
2022/01/18 09:30:42;;;;;;;22.52;5.90;;;5.90;99.90;;;;;;5051509;28;20513;-74
2022/01/18 09:33:08;;;;;;;14.52;5.50;;;5.90;99.90;;;;;;5051303;28;20045;-74
2022/01/18 09:35:35;;;;;;;23.80;6.45;;;5.90;99.90;;;;;;5052798;28;20041;-74
2022/01/18 09:38:01;;;;;;;20.30;5.80;;;6.00;99.90;;;;;;5051991;28;20029;-75
2022/01/18 09:40:28;;;;;;;17.25;5.57;;;6.00;99.90;;;;;;5052956;28;20055;-74
2022/01/18 09:42:58;;;;;;;15.38;5.90;;;6.10;99.90;;;;;;5052241;28;20048;-74
2022/01/18 09:45:25;;;;;;;18.80;5.68;;;6.10;99.90;;;;;;5051492;28;20045;-74
2022/01/18 09:47:53;;;;;;;12.88;5.45;;;6.20;99.90;;;;;;5052762;28;20048;-75
2022/01/18 09:50:23;;;;;;;17.15;6.10;;;6.20;99.90;;;;;;5051946;28;20040;-75
2022/01/18 09:52:53;;;;;;;19.85;6.60;;;6.20;99.90;;;;;;5053066;28;20049;-74
2022/01/18 09:55:20;;;;;;;30.38;7.75;;;6.20;99.90;;;;;;5052465;28;20041;-74
2022/01/18 09:57:46;;;;;;;14.32;6.38;;;6.20;99.90;;;;;;5050723;28;20045;-73
2022/01/18 10:00:12;;;;;;;15.38;6.75;;;6.30;99.90;;;;;;5053698;28;20056;-74
2022/01/18 10:02:38;;;;;;;13.02;6.05;;;6.30;99.90;;;;;;5052712;28;20083;-74
2022/01/18 10:05:38;;;;;;;15.48;5.85;;;6.30;99.90;;;;;;5051549;28;20076;-73
2022/01/18 10:08:06;;;;;;;12.52;4.35;;;6.30;99.90;;;;;;5040977;28;20059;-74
2022/01/18 10:10:40;;;;;;;11.13;4.32;;;6.40;99.90;;;;;;5052533;28;20063;-73
2022/01/18 10:13:08;;;;;;;16.42;4.35;;;6.40;99.90;;;;;;5052530;28;20377;-73
2022/01/18 10:15:34;;;;;;;19.08;6.32;;;6.40;99.90;;;;;;5052523;28;20474;-74
2022/01/18 10:18:08;;;;;;;11.90;5.15;;;6.40;99.90;;;;;;5051532;28;20124;-74
2022/01/18 10:21:00;;;;;;;14.75;4.35;;;6.30;99.90;;;;;;5052080;28;20061;-73
2022/01/18 10:23:26;;;;;;;10.82;4.32;;;6.30;99.90;;;;;;5084459;28;20191;-75
2022/01/18 10:25:53;;;;;;;9.30;4.70;;;6.30;99.90;;;;;;5051740;28;20131;-78
2022/01/18 10:28:34;;;;;;;14.70;4.10;;;6.30;99.90;;;;;;5050091;28;20648;-70
2022/01/18 10:31:05;;;;;;;9.05;4.18;;;6.30;99.90;;;;;;5078914;28;20057;-70
2022/01/18 10:33:36;;;;;;;9.13;4.35;;;6.30;99.90;;;;;;5049566;28;20175;-69
2022/01/18 10:36:12;;;;;;;13.65;4.32;;;6.40;99.90;;;;;;5050712;28;20045;-70
2022/01/18 10:38:39;;;;;;;15.20;4.30;;;6.40;99.90;;;;;;5052126;28;20049;-71
2022/01/18 10:41:27;;;;;;;16.75;4.72;;;6.40;99.90;;;;;;5050946;28;20056;-70
2022/01/18 10:44:08;;;;;;;13.63;4.32;;;6.50;99.90;;;;;;5052057;28;20061;-70
2022/01/18 10:46:41;;;;;;;14.00;4.10;;;6.40;99.90;;;;;;5050436;28;20053;-71
2022/01/18 10:49:08;;;;;;;10.88;4.50;;;6.40;99.90;;;;;;5050491;28;20395;-70
2022/01/18 10:51:40;;;;;;;11.75;4.68;;;6.40;99.90;;;;;;5050581;28;20049;-71
2022/01/18 10:54:09;;;;;;;17.15;5.57;;;6.50;99.90;;;;;;5050141;28;20049;-70
2022/01/18 10:56:44;;;;;;;7.10;3.50;;;6.50;99.90;;;;;;5050304;28;20093;-70
2022/01/18 10:59:24;;;;;;;12.05;4.07;;;6.50;99.90;;;;;;5059481;28;20471;-70
2022/01/18 11:02:17;;;;;;;12.13;4.32;;;6.50;99.90;;;;;;5050294;28;20399;-70
2022/01/18 11:04:49;;;;;;;14.77;4.00;;;6.50;99.90;;;;;;5084461;28;20435;-71
2022/01/18 11:07:18;;;;;;;13.85;3.42;;;6.50;99.90;;;;;;5049880;28;20052;-71
2022/01/18 11:09:44;;;;;;;9.38;3.00;;;6.60;99.90;;;;;;5051116;28;20095;-70
2022/01/18 11:12:10;;;;;;;11.65;3.25;;;6.60;99.90;;;;;;5050883;28;20442;-70
2022/01/18 11:14:39;;;;;;;14.25;3.20;;;6.60;99.90;;;;;;5050382;28;20056;-71
2022/01/18 11:17:09;;;;;;;13.65;3.05;;;6.60;99.90;;;;;;5050537;28;20442;-71
2022/01/18 11:19:37;;;;;;;12.13;3.38;;;6.50;99.90;;;;;;5052409;28;20045;-70
2022/01/18 11:22:07;;;;;;;10.43;3.85;;;6.50;99.90;;;;;;5050284;28;20067;-70
2022/01/18 11:24:35;;;;;;;10.70;3.47;;;6.60;99.90;;;;;;5051857;28;20068;-71
2022/01/18 11:27:03;;;;;;;12.48;3.67;;;6.50;99.90;;;;;;5050005;28;20067;-69
2022/01/18 11:29:31;;;;;;;7.18;2.80;;;6.60;99.90;;;;;;5049400;28;20056;-70
2022/01/18 11:31:57;;;;;;;16.83;4.00;;;6.60;99.90;;;;;;5050849;28;20629;-70
2022/01/18 11:34:45;;;;;;;8.90;3.20;;;6.60;99.90;;;;;;5048831;28;20053;-70
2022/01/18 11:37:52;;;;;;;9.85;3.75;;;6.60;99.90;;;;;;5050035;28;20103;-81
2022/01/18 11:40:18;;;;;;;11.82;3.97;;;6.60;99.90;;;;;;5076753;28;20495;-79
2022/01/18 11:42:50;;;;;;;9.32;3.50;;;6.60;99.90;;;;;;5050225;28;20044;-82
2022/01/18 11:45:25;;;;;;;9.18;3.83;;;6.60;99.90;;;;;;5050754;28;20386;-71
2022/01/18 11:48:18;;;;;;;11.77;3.97;;;6.50;99.90;;;;;;5049961;28;20504;-71
2022/01/18 11:51:11;;;;;;;10.40;3.88;;;6.60;99.90;;;;;;5043645;28;20055;-71
2022/01/18 11:53:55;;;;;;;11.57;4.82;;;6.50;99.90;;;;;;5048069;28;20558;-69
2022/01/18 11:56:39;;;;;;;6.78;3.20;;;6.60;99.90;;;;;;5047682;28;20510;-70
2022/01/18 11:59:18;;;;;;;7.47;3.63;;;6.60;99.90;;;;;;5050870;28;20047;-70
2022/01/18 12:01:51;;;;;;;13.95;5.13;;;6.60;99.90;;;;;;5049263;28;20060;-70
2022/01/18 12:07:04;;;;;;;17.73;5.28;;;6.60;99.90;;;;;;5049459;28;20049;-70
2022/01/18 12:09:41;;;;;;;7.78;4.22;;;6.60;99.90;;;;;;5049474;28;20395;-71
2022/01/18 12:12:41;;;;;;;12.35;4.57;;;6.60;99.90;;;;;;5048569;28;20088;-70
2022/01/18 12:15:16;;;;;;;13.85;5.50;;;6.60;99.90;;;;;;5048872;28;20093;-69
2022/01/18 12:18:12;;;;;;;9.63;5.00;;;6.60;99.90;;;;;;5049008;28;20114;-70
2022/01/18 12:20:40;;;;;;;10.93;4.32;;;6.50;99.90;;;;;;5049484;28;20052;-69
2022/01/18 12:23:07;;;;;;;9.48;5.30;;;6.50;99.90;;;;;;5049197;28;20045;-70
2022/01/18 12:25:40;;;;;;;17.73;5.45;;;6.50;99.90;;;;;;5047576;28;20519;-70
2022/01/18 12:34:33;;;;;;;11.93;4.22;;;6.60;99.90;;;;;;5045074;28;20060;-69
2022/01/18 12:37:13;;;;;;;14.40;4.63;;;6.60;99.90;;;;;;5043679;28;20053;-69
2022/01/18 12:39:52;;;;;;;14.27;5.55;;;6.60;99.90;;;;;;5039496;28;20549;-69
2022/01/18 12:45:10;;;;;;;14.57;5.43;;;6.60;99.90;;;;;;5049072;28;20767;-69
2022/01/18 12:47:46;;;;;;;15.32;6.05;;;6.60;99.90;;;;;;5048883;28;20064;-69
2022/01/18 12:50:13;;;;;;;15.52;6.20;;;6.70;99.90;;;;;;5042366;28;20049;-69
2022/01/18 12:53:00;;;;;;;17.98;6.32;;;6.70;99.90;;;;;;5049075;28;20053;-69
2022/01/18 12:55:33;;;;;;;20.92;6.82;;;6.70;99.90;;;;;;5049039;28;20053;-69
2022/01/18 12:58:06;;;;;;;12.68;6.45;;;6.70;99.90;;;;;;5044904;28;20098;-69
2022/01/18 13:00:41;;;;;;;14.43;6.13;;;6.70;99.90;;;;;;5048696;28;20112;-70
2022/01/18 13:03:07;;;;;;;14.90;6.18;;;6.70;99.90;;;;;;5046208;28;20059;-69
2022/01/18 13:05:41;;;;;;;17.70;6.22;;;6.70;99.90;;;;;;5048593;28;20067;-69
2022/01/18 13:08:09;;;;;;;17.42;6.60;;;6.80;99.90;;;;;;5047360;28;20131;-72
2022/01/18 13:10:46;;;;;;;14.05;6.07;;;6.80;99.90;;;;;;5049202;28;20045;-72
2022/01/18 13:13:15;;;;;;;13.57;6.28;;;6.80;99.90;;;;;;5048821;28;20056;-72
2022/01/18 13:16:03;;;;;;;17.80;6.53;;;6.90;99.90;;;;;;5048425;28;20093;-71
2022/01/18 13:26:42;;;;;;;16.05;6.95;;;6.80;99.90;;;;;;5049036;28;20102;-72
2022/01/18 13:29:21;;;;;;;11.88;6.18;;;6.70;99.90;;;;;;5048041;28;20483;-72
2022/01/18 13:32:03;;;;;;;18.38;6.97;;;6.60;99.90;;;;;;5049229;28;20045;-72
2022/01/18 13:34:33;;;;;;;;;;;6.60;99.90;;;;;;5049426;28;20057;-72
2022/01/18 13:37:02;;;;;;;14.75;6.43;;;6.60;99.90;;;;;;5048077;28;19929;-71
2022/01/18 13:39:31;;;;;;;20.13;6.38;;;6.60;99.90;;;;;;5049128;28;20126;-72
2022/01/18 13:42:00;;;;;;;17.42;6.80;;;6.60;99.90;;;;;;5050085;28;20115;-72
2022/01/18 13:44:29;;;;;;;16.40;6.07;;;6.60;99.90;;;;;;5050435;28;20052;-72
2022/01/18 13:47:11;;;;;;;17.95;5.90;;;6.60;99.90;;;;;;5048998;28;20053;-72
2022/01/18 13:49:37;;;;;;;18.00;6.90;;;6.60;99.90;;;;;;5048345;28;20382;-73
2022/01/18 13:52:08;;;;;;;12.88;7.10;;;6.50;99.90;;;;;;5048721;28;20053;-73
2022/01/18 13:54:51;;;;;;;14.18;6.85;;;6.50;99.90;;;;;;5050393;28;20132;-73
2022/01/18 13:57:21;;;;;;;19.88;8.00;;;6.50;99.90;;;;;;5048186;28;20048;-70
2022/01/18 13:59:49;;;;;;;13.23;6.15;;;6.50;99.90;;;;;;5048279;28;20045;-69
2022/01/18 14:02:20;;;;;;;17.17;6.80;;;6.50;99.90;;;;;;5049810;28;20052;-69
2022/01/18 14:05:04;;;;;;;15.90;6.18;;;6.50;99.90;;;;;;5049420;28;20045;-69
2022/01/18 14:07:29;;;;;;;16.98;6.45;;;6.50;99.90;;;;;;5050152;28;20045;-67
2022/01/18 14:09:59;;;;;;;9.25;4.97;;;6.50;99.90;;;;;;5049779;28;20056;-69
2022/01/18 14:12:30;;;;;;;11.98;5.13;;;6.40;99.90;;;;;;5051864;28;20119;-69
2022/01/18 14:14:55;;;;;;;13.27;6.80;;;6.40;99.90;;;;;;5031326;28;20060;-69
2022/01/18 14:17:21;;;;;;;13.13;5.72;;;6.40;99.90;;;;;;5030714;28;20073;-69
2022/01/18 14:19:47;;;;;;;15.15;5.65;;;6.30;99.90;;;;;;5032195;28;20084;-69
2022/01/18 14:22:26;;;;;;;11.13;5.47;;;6.20;99.90;;;;;;5033201;28;20410;-68
2022/01/18 14:24:57;;;;;;;13.57;6.13;;;6.20;99.90;;;;;;5031745;28;20061;-69